createdAt,value
2016-12-21T00:00:49.444Z,960.08
2016-12-21T00:01:49.425Z,960.06
2016-12-21T00:02:49.407Z,960.06
2016-12-21T00:03:49.387Z,960.07
2016-12-21T00:04:49.367Z,960.04
2016-12-21T00:05:49.349Z,959.96
2016-12-21T00:06:49.329Z,960.03
2016-12-21T00:07:49.308Z,959.96
2016-12-21T00:08:49.291Z,959.94
2016-12-21T00:09:49.272Z,959.96
2016-12-21T00:10:49.253Z,959.98
2016-12-21T00:11:49.234Z,960.06
2016-12-21T00:12:49.213Z,960.1
2016-12-21T00:13:49.195Z,960.06
2016-12-21T00:14:49.176Z,960.02
2016-12-21T00:15:49.155Z,960.04
2016-12-21T00:16:49.137Z,960.04
2016-12-21T00:17:49.118Z,960.06
2016-12-21T00:18:49.098Z,960.08
2016-12-21T00:19:49.080Z,960
2016-12-21T00:20:49.060Z,959.96
2016-12-21T00:21:49.042Z,959.89
2016-12-21T00:22:49.191Z,960.03
2016-12-21T00:23:49.113Z,960.04
2016-12-21T00:24:48.985Z,959.95
2016-12-21T00:25:49.016Z,959.99
2016-12-21T00:26:48.946Z,959.95
2016-12-21T00:27:49.017Z,959.96
2016-12-21T00:28:48.907Z,959.93
2016-12-21T00:29:48.888Z,960.01
2016-12-21T00:30:48.870Z,960.01
2016-12-21T00:31:48.851Z,960
2016-12-21T00:32:48.831Z,960.05
2016-12-21T00:33:48.811Z,960.06
2016-12-21T00:34:48.794Z,960.16
2016-12-21T00:35:48.775Z,960.09
2016-12-21T00:36:48.756Z,960.1
2016-12-21T00:37:48.735Z,960.15
2016-12-21T00:38:48.716Z,960.07
2016-12-21T00:39:48.698Z,960.07
2016-12-21T00:40:48.679Z,960.09
2016-12-21T00:41:48.660Z,960.08
2016-12-21T00:42:48.641Z,960.06
2016-12-21T00:43:48.621Z,960.06
2016-12-21T00:44:48.606Z,960.02
2016-12-21T00:45:48.585Z,960.07
2016-12-21T00:46:48.565Z,960.06
2016-12-21T00:47:48.546Z,960.06
2016-12-21T00:48:48.526Z,960.04
2016-12-21T00:49:48.509Z,960.04
2016-12-21T00:50:48.491Z,959.96
2016-12-21T00:51:48.471Z,959.95
2016-12-21T00:52:48.451Z,959.9
2016-12-21T00:53:48.433Z,959.94
2016-12-21T00:54:48.414Z,959.99
2016-12-21T00:55:48.394Z,959.97
2016-12-21T00:56:48.375Z,959.97
2016-12-21T00:57:48.358Z,959.95
2016-12-21T00:58:48.338Z,959.98
2016-12-21T00:59:48.318Z,960.02
2016-12-21T01:00:48.348Z,960.04
2016-12-21T01:01:48.281Z,960.08
2016-12-21T01:02:48.260Z,960.07
2016-12-21T01:03:48.242Z,960.1
2016-12-21T01:04:48.223Z,960.14
2016-12-21T01:05:48.204Z,960.18
2016-12-21T01:06:48.184Z,960.25
2016-12-21T01:07:48.167Z,960.21
2016-12-21T01:08:48.149Z,960.24
2016-12-21T01:09:48.129Z,960.32
2016-12-21T01:10:48.110Z,960.33
2016-12-21T01:11:48.092Z,960.38
2016-12-21T01:12:48.145Z,960.36
2016-12-21T01:13:48.052Z,960.33
2016-12-21T01:14:48.034Z,960.42
2016-12-21T01:15:48.016Z,960.33
2016-12-21T01:16:47.997Z,960.29
2016-12-21T01:17:47.977Z,960.24
2016-12-21T01:18:47.958Z,960.26
2016-12-21T01:19:47.940Z,960.25
2016-12-21T01:20:47.919Z,960.26
2016-12-21T01:21:47.902Z,960.31
2016-12-21T01:22:47.883Z,960.35
2016-12-21T01:23:47.863Z,960.34
2016-12-21T01:24:47.973Z,960.34
2016-12-21T01:25:47.825Z,960.36
2016-12-21T01:26:47.807Z,960.39
2016-12-21T01:27:47.925Z,960.4
2016-12-21T01:28:47.767Z,960.4
2016-12-21T01:29:47.749Z,960.41
2016-12-21T01:30:47.869Z,960.38
2016-12-21T01:31:47.710Z,960.44
2016-12-21T01:32:47.692Z,960.55
2016-12-21T01:33:47.821Z,960.47
2016-12-21T01:34:47.654Z,960.44
2016-12-21T01:35:47.634Z,960.47
2016-12-21T01:36:47.756Z,960.52
2016-12-21T01:37:47.598Z,960.55
2016-12-21T01:38:47.578Z,960.57
2016-12-21T01:39:47.690Z,960.51
2016-12-21T01:40:47.539Z,960.55
2016-12-21T01:41:47.521Z,960.55
2016-12-21T01:42:47.637Z,960.53
2016-12-21T01:43:47.482Z,960.55
2016-12-21T01:44:47.465Z,960.57
2016-12-21T01:45:47.575Z,960.48
2016-12-21T01:46:47.425Z,960.53
2016-12-21T01:47:47.407Z,960.57
2016-12-21T01:48:47.518Z,960.49
2016-12-21T01:49:47.368Z,960.51
2016-12-21T01:50:47.509Z,960.53
2016-12-21T01:51:47.331Z,960.57
2016-12-21T01:52:47.318Z,960.51
2016-12-21T01:53:47.293Z,960.51
2016-12-21T01:54:47.273Z,960.48
2016-12-21T01:55:47.254Z,960.46
2016-12-21T01:56:47.363Z,960.47
2016-12-21T01:57:47.216Z,960.45
2016-12-21T01:58:47.196Z,960.45
2016-12-21T01:59:47.177Z,960.52
2016-12-21T02:00:47.159Z,960.47
2016-12-21T02:01:47.140Z,960.47
2016-12-21T02:02:47.121Z,960.48
2016-12-21T02:03:47.101Z,960.38
2016-12-21T02:04:47.082Z,960.43
2016-12-21T02:05:47.062Z,960.41
2016-12-21T02:06:47.046Z,960.42
2016-12-21T02:07:47.026Z,960.39
2016-12-21T02:08:47.006Z,960.38
2016-12-21T02:09:46.987Z,960.43
2016-12-21T02:10:47.100Z,960.36
2016-12-21T02:11:46.951Z,960.44
2016-12-21T02:12:46.931Z,960.44
2016-12-21T02:13:46.911Z,960.43
2016-12-21T02:14:46.892Z,960.48
2016-12-21T02:15:46.873Z,960.53
2016-12-21T02:16:47.144Z,960.49
2016-12-21T02:17:46.839Z,960.48
2016-12-21T02:18:46.817Z,960.47
2016-12-21T02:19:46.797Z,960.44
2016-12-21T02:20:46.778Z,960.41
2016-12-21T02:21:46.765Z,960.41
2016-12-21T02:22:46.742Z,960.41
2016-12-21T02:23:46.721Z,960.41
2016-12-21T02:24:46.805Z,960.45
2016-12-21T02:25:46.682Z,960.36
2016-12-21T02:26:46.663Z,960.38
2016-12-21T02:27:46.805Z,960.3
2016-12-21T02:28:46.625Z,960.32
2016-12-21T02:29:46.606Z,960.24
2016-12-21T02:30:46.588Z,960.28
2016-12-21T02:31:46.568Z,960.29
2016-12-21T02:32:46.549Z,960.23
2016-12-21T02:33:46.531Z,960.22
2016-12-21T02:34:46.510Z,960.2
2016-12-21T02:35:46.492Z,960.27
2016-12-21T02:36:46.472Z,960.24
2016-12-21T02:37:46.453Z,960.24
2016-12-21T02:38:46.435Z,960.14
2016-12-21T02:39:46.416Z,960.16
2016-12-21T02:40:46.397Z,960.05
2016-12-21T02:41:46.453Z,960.11
2016-12-21T02:42:46.358Z,960.06
2016-12-21T02:43:46.469Z,959.96
2016-12-21T02:44:46.321Z,960.02
2016-12-21T02:45:46.302Z,959.99
2016-12-21T02:46:46.565Z,959.9
2016-12-21T02:47:46.265Z,960.01
2016-12-21T02:48:46.244Z,959.91
2016-12-21T02:49:46.383Z,959.84
2016-12-21T02:50:46.208Z,959.89
2016-12-21T02:51:46.188Z,959.66
2016-12-21T02:52:46.288Z,959.91
2016-12-21T02:53:46.151Z,959.94
2016-12-21T02:54:46.130Z,959.94
2016-12-21T02:55:46.256Z,959.93
2016-12-21T02:56:46.093Z,959.93
2016-12-21T02:57:46.222Z,960.01
2016-12-21T02:58:46.054Z,959.98
2016-12-21T02:59:46.034Z,960.15
2016-12-21T03:00:46.152Z,960.23
2016-12-21T03:01:45.997Z,960.35
2016-12-21T03:02:45.977Z,960.4
2016-12-21T03:03:46.110Z,960.46
2016-12-21T03:04:45.943Z,960.45
2016-12-21T03:05:45.919Z,960.48
2016-12-21T03:06:45.900Z,960.45
2016-12-21T03:07:45.882Z,960.47
2016-12-21T03:08:45.863Z,960.49
2016-12-21T03:09:45.844Z,960.52
2016-12-21T03:10:45.824Z,960.51
2016-12-21T03:11:45.806Z,960.56
2016-12-21T03:12:45.787Z,960.45
2016-12-21T03:13:45.767Z,960.49
2016-12-21T03:14:45.747Z,960.45
2016-12-21T03:15:45.730Z,960.4
2016-12-21T03:16:45.710Z,960.37
2016-12-21T03:17:45.691Z,960.38
2016-12-21T03:18:45.672Z,960.35
2016-12-21T03:19:45.653Z,960.27
2016-12-21T03:20:45.634Z,960.37
2016-12-21T03:21:45.615Z,960.29
2016-12-21T03:22:45.596Z,960.38
2016-12-21T03:23:45.577Z,960.37
2016-12-21T03:24:45.558Z,960.4
2016-12-21T03:25:45.538Z,960.42
2016-12-21T03:26:45.519Z,960.42
2016-12-21T03:27:45.500Z,960.42
2016-12-21T03:28:45.480Z,960.43
2016-12-21T03:29:45.462Z,960.5
2016-12-21T03:30:45.443Z,960.49
2016-12-21T03:31:45.424Z,960.43
2016-12-21T03:32:45.405Z,960.46
2016-12-21T03:33:45.386Z,960.32
2016-12-21T03:34:45.367Z,960.37
2016-12-21T03:35:45.348Z,960.4
2016-12-21T03:36:45.328Z,960.32
2016-12-21T03:37:45.310Z,960.41
2016-12-21T03:38:45.291Z,960.36
2016-12-21T03:39:45.271Z,960.34
2016-12-21T03:40:45.252Z,960.41
2016-12-21T03:41:45.233Z,960.41
2016-12-21T03:42:45.215Z,960.48
2016-12-21T03:43:45.195Z,960.5
2016-12-21T03:44:45.176Z,960.6
2016-12-21T03:45:45.158Z,960.54
2016-12-21T03:46:45.139Z,960.52
2016-12-21T03:47:45.117Z,960.6
2016-12-21T03:48:45.101Z,960.55
2016-12-21T03:49:45.081Z,960.61
2016-12-21T03:50:45.060Z,960.64
2016-12-21T03:51:45.042Z,960.7
2016-12-21T03:52:45.024Z,960.73
2016-12-21T03:53:45.006Z,960.7
2016-12-21T03:54:44.986Z,960.62
2016-12-21T03:55:44.966Z,960.67
2016-12-21T03:56:44.949Z,960.64
2016-12-21T03:57:44.934Z,960.73
2016-12-21T03:58:44.910Z,960.65
2016-12-21T03:59:44.893Z,960.67
2016-12-21T04:00:44.874Z,960.73
2016-12-21T04:01:44.853Z,960.73
2016-12-21T04:02:44.834Z,960.78
2016-12-21T04:03:44.816Z,960.73
2016-12-21T04:04:44.797Z,960.82
2016-12-21T04:05:44.777Z,960.73
2016-12-21T04:06:44.758Z,960.79
2016-12-21T04:07:44.741Z,960.84
2016-12-21T04:08:44.721Z,960.84
2016-12-21T04:09:44.702Z,960.83
2016-12-21T04:10:44.684Z,960.89
2016-12-21T04:11:44.665Z,960.84
2016-12-21T04:12:44.645Z,960.89
2016-12-21T04:13:44.626Z,960.79
2016-12-21T04:14:44.608Z,960.83
2016-12-21T04:15:44.589Z,960.82
2016-12-21T04:16:44.569Z,960.82
2016-12-21T04:17:44.551Z,960.86
2016-12-21T04:18:44.532Z,960.88
2016-12-21T04:19:44.513Z,960.9
2016-12-21T04:20:44.495Z,960.89
2016-12-21T04:21:44.477Z,960.86
2016-12-21T04:22:44.458Z,960.91
2016-12-21T04:23:44.438Z,960.95
2016-12-21T04:24:44.419Z,960.94
2016-12-21T04:25:44.402Z,960.96
2016-12-21T04:26:44.382Z,960.99
2016-12-21T04:27:44.362Z,961.03
2016-12-21T04:28:44.345Z,961.13
2016-12-21T04:29:44.325Z,961.08
2016-12-21T04:30:44.305Z,961.09
2016-12-21T04:31:44.286Z,961.14
2016-12-21T04:32:44.267Z,961.15
2016-12-21T04:33:44.249Z,961.19
2016-12-21T04:34:44.229Z,961.17
2016-12-21T04:35:44.209Z,961.22
2016-12-21T04:36:44.190Z,961.2
2016-12-21T04:37:44.173Z,961.19
2016-12-21T04:38:44.153Z,961.25
2016-12-21T04:39:44.134Z,961.29
2016-12-21T04:40:44.116Z,961.3
2016-12-21T04:41:44.095Z,961.37
2016-12-21T04:42:44.077Z,961.38
2016-12-21T04:43:44.058Z,961.39
2016-12-21T04:44:44.040Z,961.49
2016-12-21T04:45:44.020Z,961.51
2016-12-21T04:46:44.001Z,961.58
2016-12-21T04:47:43.983Z,961.53
2016-12-21T04:48:43.964Z,961.54
2016-12-21T04:49:43.945Z,961.61
2016-12-21T04:50:43.925Z,961.57
2016-12-21T04:51:43.906Z,961.69
2016-12-21T04:52:43.887Z,961.61
2016-12-21T04:53:43.868Z,961.63
2016-12-21T04:54:43.849Z,961.65
2016-12-21T04:55:43.830Z,961.65
2016-12-21T04:56:43.810Z,961.75
2016-12-21T04:57:43.792Z,961.76
2016-12-21T04:58:43.774Z,961.74
2016-12-21T04:59:43.754Z,961.76
2016-12-21T05:00:43.735Z,961.85
2016-12-21T05:01:43.716Z,961.86
2016-12-21T05:02:43.696Z,961.89
2016-12-21T05:03:43.677Z,961.97
2016-12-21T05:04:43.658Z,961.9
2016-12-21T05:05:43.644Z,961.93
2016-12-21T05:06:43.621Z,961.99
2016-12-21T05:07:43.601Z,961.95
2016-12-21T05:08:43.582Z,961.97
2016-12-21T05:09:43.565Z,961.92
2016-12-21T05:10:43.545Z,961.96
2016-12-21T05:11:43.525Z,961.92
2016-12-21T05:12:43.506Z,961.92
2016-12-21T05:13:43.488Z,962
2016-12-21T05:14:43.469Z,961.96
2016-12-21T05:15:43.449Z,962
2016-12-21T05:16:43.429Z,962.03
2016-12-21T05:17:43.412Z,962.05
2016-12-21T05:18:43.392Z,961.99
2016-12-21T05:19:43.372Z,962.08
2016-12-21T05:20:43.354Z,962.03
2016-12-21T05:21:43.335Z,962.09
2016-12-21T05:22:43.315Z,962.04
2016-12-21T05:23:43.302Z,962.13
2016-12-21T05:24:43.277Z,962.14
2016-12-21T05:25:43.257Z,962.11
2016-12-21T05:26:43.239Z,962.21
2016-12-21T05:27:43.221Z,962.14
2016-12-21T05:28:43.202Z,962.1
2016-12-21T05:29:43.181Z,962.16
2016-12-21T05:30:43.162Z,962.07
2016-12-21T05:31:43.161Z,962.11
2016-12-21T05:32:43.124Z,962.11
2016-12-21T05:33:43.105Z,962.11
2016-12-21T05:34:43.085Z,962.07
2016-12-21T05:35:43.068Z,962.11
2016-12-21T05:36:43.047Z,962.07
2016-12-21T05:37:43.029Z,962.06
2016-12-21T05:38:43.011Z,962.03
2016-12-21T05:39:42.991Z,962.05
2016-12-21T05:40:42.971Z,962.03
2016-12-21T05:41:42.953Z,962.07
2016-12-21T05:42:42.933Z,962.06
2016-12-21T05:43:42.918Z,962.08
2016-12-21T05:44:42.895Z,962.12
2016-12-21T05:45:42.876Z,962.07
2016-12-21T05:46:42.857Z,962.05
2016-12-21T05:47:42.836Z,962.03
2016-12-21T05:48:42.817Z,962.01
2016-12-21T05:49:42.799Z,961.94
2016-12-21T05:50:42.780Z,961.97
2016-12-21T05:51:42.760Z,961.99
2016-12-21T05:52:42.742Z,962.02
2016-12-21T05:53:42.723Z,962.01
2016-12-21T05:54:42.703Z,961.98
2016-12-21T05:55:42.685Z,961.94
2016-12-21T05:56:42.669Z,961.93
2016-12-21T05:57:42.648Z,961.99
2016-12-21T05:58:42.627Z,961.92
2016-12-21T05:59:42.608Z,962.01
2016-12-21T06:00:42.589Z,961.99
2016-12-21T06:01:42.571Z,961.99
2016-12-21T06:02:42.550Z,962.06
2016-12-21T06:03:42.531Z,962.08
2016-12-21T06:04:42.513Z,961.93
2016-12-21T06:05:42.493Z,961.95
2016-12-21T06:06:42.475Z,961.94
2016-12-21T06:07:42.455Z,962.04
2016-12-21T06:08:42.437Z,962.05
2016-12-21T06:09:42.416Z,962.11
2016-12-21T06:10:42.397Z,962.18
2016-12-21T06:11:42.378Z,962.11
2016-12-21T06:12:42.359Z,962.23
2016-12-21T06:13:42.339Z,962.18
2016-12-21T06:14:42.320Z,962.21
2016-12-21T06:15:42.301Z,962.17
2016-12-21T06:16:42.280Z,962.13
2016-12-21T06:17:42.261Z,962.13
2016-12-21T06:18:42.243Z,962.16
2016-12-21T06:19:42.224Z,962.18
2016-12-21T06:20:42.204Z,962.17
2016-12-21T06:21:42.184Z,962.22
2016-12-21T06:22:42.164Z,962.19
2016-12-21T06:23:42.145Z,962.25
2016-12-21T06:24:42.125Z,962.31
2016-12-21T06:25:42.106Z,962.37
2016-12-21T06:26:42.087Z,962.37
2016-12-21T06:27:42.067Z,962.36
2016-12-21T06:28:42.049Z,962.41
2016-12-21T06:29:42.029Z,962.39
2016-12-21T06:30:42.010Z,962.41
2016-12-21T06:31:41.991Z,962.43
2016-12-21T06:32:41.971Z,962.5
2016-12-21T06:33:41.952Z,962.57
2016-12-21T06:34:41.933Z,962.62
2016-12-21T06:35:41.914Z,962.66
2016-12-21T06:36:41.895Z,962.69
2016-12-21T06:37:41.875Z,962.7
2016-12-21T06:38:41.854Z,962.63
2016-12-21T06:39:41.836Z,962.69
2016-12-21T06:40:41.817Z,962.7
2016-12-21T06:41:41.798Z,962.7
2016-12-21T06:42:41.778Z,962.66
2016-12-21T06:43:41.759Z,962.69
2016-12-21T06:44:41.741Z,962.78
2016-12-21T06:45:41.721Z,962.77
2016-12-21T06:46:41.701Z,962.75
2016-12-21T06:47:41.682Z,962.78
2016-12-21T06:48:41.663Z,962.8
2016-12-21T06:49:41.643Z,962.74
2016-12-21T06:50:41.623Z,962.74
2016-12-21T06:51:41.605Z,962.73
2016-12-21T06:52:41.586Z,962.77
2016-12-21T06:53:41.566Z,962.77
2016-12-21T06:54:41.547Z,962.72
2016-12-21T06:55:41.529Z,962.67
2016-12-21T06:56:41.509Z,962.73
2016-12-21T06:57:41.489Z,962.73
2016-12-21T06:58:41.469Z,962.72
2016-12-21T06:59:41.451Z,962.67
2016-12-21T07:00:41.431Z,962.67
2016-12-21T07:01:41.413Z,962.73
2016-12-21T07:02:41.393Z,962.78
2016-12-21T07:03:41.373Z,962.81
2016-12-21T07:04:41.356Z,962.81
2016-12-21T07:05:41.334Z,962.8
2016-12-21T07:06:41.315Z,962.83
2016-12-21T07:07:41.296Z,962.84
2016-12-21T07:08:41.277Z,962.79
2016-12-21T07:09:41.257Z,962.8
2016-12-21T07:10:41.238Z,962.84
2016-12-21T07:11:41.218Z,962.83
2016-12-21T07:12:41.199Z,962.82
2016-12-21T07:13:41.180Z,962.88
2016-12-21T07:14:41.160Z,962.9
2016-12-21T07:15:41.141Z,962.92
2016-12-21T07:16:41.121Z,962.88
2016-12-21T07:17:41.102Z,962.9
2016-12-21T07:18:41.084Z,962.94
2016-12-21T07:19:41.065Z,962.92
2016-12-21T07:20:41.044Z,962.96
2016-12-21T07:21:41.025Z,963.01
2016-12-21T07:22:41.005Z,963.07
2016-12-21T07:23:40.986Z,963.18
2016-12-21T07:24:40.967Z,963.18
2016-12-21T07:25:40.948Z,963.18
2016-12-21T07:26:40.928Z,963.23
2016-12-21T07:27:40.909Z,963.29
2016-12-21T07:28:40.890Z,963.35
2016-12-21T07:29:40.871Z,963.39
2016-12-21T07:30:40.852Z,963.44
2016-12-21T07:31:40.833Z,963.39
2016-12-21T07:32:40.814Z,963.36
2016-12-21T07:33:40.795Z,963.32
2016-12-21T07:34:40.775Z,963.36
2016-12-21T07:35:40.756Z,963.33
2016-12-21T07:36:40.737Z,963.28
2016-12-21T07:37:40.717Z,963.34
2016-12-21T07:38:40.697Z,963.4
2016-12-21T07:39:40.679Z,963.52
2016-12-21T07:40:40.660Z,963.53
2016-12-21T07:41:40.641Z,963.6
2016-12-21T07:42:40.621Z,963.68
2016-12-21T07:43:40.603Z,963.67
2016-12-21T07:44:40.583Z,963.69
2016-12-21T07:45:40.564Z,963.73
2016-12-21T07:46:40.545Z,963.77
2016-12-21T07:47:40.526Z,963.7
2016-12-21T07:48:40.507Z,963.66
2016-12-21T07:49:40.487Z,963.66
2016-12-21T07:50:40.471Z,963.67
2016-12-21T07:51:40.450Z,963.66
2016-12-21T07:52:40.431Z,963.72
2016-12-21T07:53:40.412Z,963.74
2016-12-21T07:54:40.393Z,963.78
2016-12-21T07:55:40.375Z,963.77
2016-12-21T07:56:40.356Z,963.74
2016-12-21T07:57:40.336Z,963.75
2016-12-21T07:58:40.317Z,963.8
2016-12-21T07:59:40.298Z,963.78
2016-12-21T08:00:40.279Z,963.84
2016-12-21T08:01:40.259Z,963.85
2016-12-21T08:02:40.240Z,963.86
2016-12-21T08:03:40.222Z,963.87
2016-12-21T08:04:40.203Z,963.88
2016-12-21T08:05:40.184Z,963.92
2016-12-21T08:06:40.164Z,963.93
2016-12-21T08:07:40.146Z,963.87
2016-12-21T08:08:40.127Z,963.87
2016-12-21T08:09:40.109Z,963.87
2016-12-21T08:10:40.090Z,963.86
2016-12-21T08:11:40.071Z,963.85
2016-12-21T08:12:40.051Z,963.88
2016-12-21T08:13:40.032Z,963.85
2016-12-21T08:14:40.013Z,963.91
2016-12-21T08:15:39.995Z,963.93
2016-12-21T08:16:39.976Z,963.88
2016-12-21T08:17:39.957Z,963.92
2016-12-21T08:18:39.937Z,963.88
2016-12-21T08:19:39.919Z,963.89
2016-12-21T08:20:39.899Z,963.93
2016-12-21T08:21:39.880Z,963.93
2016-12-21T08:22:39.862Z,963.94
2016-12-21T08:23:39.843Z,963.94
2016-12-21T08:24:39.824Z,963.89
2016-12-21T08:25:39.805Z,963.94
2016-12-21T08:26:39.786Z,963.93
2016-12-21T08:27:39.767Z,963.93
2016-12-21T08:28:39.747Z,964
2016-12-21T08:29:39.730Z,963.99
2016-12-21T08:30:39.710Z,963.99
2016-12-21T08:31:39.691Z,963.98
2016-12-21T08:32:39.671Z,964.01
2016-12-21T08:33:39.653Z,964.04
2016-12-21T08:34:39.634Z,964
2016-12-21T08:35:39.614Z,963.99
2016-12-21T08:36:39.597Z,963.96
2016-12-21T08:37:39.577Z,963.96
2016-12-21T08:38:39.558Z,963.93
2016-12-21T08:39:39.538Z,963.98
2016-12-21T08:40:39.520Z,963.98
2016-12-21T08:41:39.500Z,964.01
2016-12-21T08:42:39.482Z,964
2016-12-21T08:43:39.461Z,963.99
2016-12-21T08:44:39.444Z,963.94
2016-12-21T08:45:39.425Z,963.95
2016-12-21T08:46:39.405Z,963.92
2016-12-21T08:47:39.386Z,963.89
2016-12-21T08:48:39.367Z,963.89
2016-12-21T08:49:39.349Z,963.94
2016-12-21T08:50:39.328Z,963.93
2016-12-21T08:51:39.311Z,963.96
2016-12-21T08:52:39.292Z,963.93
2016-12-21T08:53:39.271Z,963.94
2016-12-21T08:54:39.253Z,963.94
2016-12-21T08:55:39.235Z,963.96
2016-12-21T08:56:39.215Z,963.93
2016-12-21T08:57:39.246Z,963.96
2016-12-21T08:58:39.176Z,963.95
2016-12-21T08:59:39.159Z,963.97
2016-12-21T09:00:39.165Z,963.95
2016-12-21T09:01:39.119Z,963.93
2016-12-21T09:02:39.102Z,963.94
2016-12-21T09:03:39.083Z,963.99
2016-12-21T09:04:39.065Z,963.98
2016-12-21T09:05:39.046Z,964.01
2016-12-21T09:06:39.027Z,964.01
2016-12-21T09:07:39.009Z,964.03
2016-12-21T09:08:38.989Z,964.02
2016-12-21T09:09:38.971Z,964.04
2016-12-21T09:10:38.951Z,963.99
2016-12-21T09:11:38.933Z,964.02
2016-12-21T09:12:38.913Z,964.05
2016-12-21T09:13:38.895Z,964
2016-12-21T09:14:38.877Z,964.01
2016-12-21T09:15:38.857Z,964.05
2016-12-21T09:16:38.839Z,964.03
2016-12-21T09:17:38.820Z,964
2016-12-21T09:18:38.801Z,964.05
2016-12-21T09:19:38.783Z,964.05
2016-12-21T09:20:38.764Z,964.08
2016-12-21T09:21:38.745Z,964.08
2016-12-21T09:22:38.727Z,964.07
2016-12-21T09:23:38.708Z,964.09
2016-12-21T09:24:38.689Z,964.07
2016-12-21T09:25:38.670Z,964.11
2016-12-21T09:26:38.651Z,964.06
2016-12-21T09:27:38.633Z,964.02
2016-12-21T09:28:38.615Z,963.99
2016-12-21T09:29:38.595Z,964
2016-12-21T09:30:38.577Z,964
2016-12-21T09:31:38.559Z,963.92
2016-12-21T09:32:38.541Z,963.92
2016-12-21T09:33:38.523Z,963.9
2016-12-21T09:34:38.503Z,963.85
2016-12-21T09:35:38.485Z,963.88
2016-12-21T09:36:38.467Z,963.86
2016-12-21T09:37:38.449Z,963.84
2016-12-21T09:38:38.428Z,963.82
2016-12-21T09:39:38.411Z,963.85
2016-12-21T09:40:38.392Z,963.87
2016-12-21T09:41:38.374Z,963.91
2016-12-21T09:42:38.355Z,963.94
2016-12-21T09:43:38.337Z,963.89
2016-12-21T09:44:38.319Z,963.93
2016-12-21T09:45:38.300Z,963.95
2016-12-21T09:46:38.282Z,963.97
2016-12-21T09:47:38.264Z,964.02
2016-12-21T09:48:38.245Z,964.03
2016-12-21T09:49:38.227Z,963.98
2016-12-21T09:50:38.209Z,964.03
2016-12-21T09:51:38.191Z,964.02
2016-12-21T09:52:38.172Z,964.03
2016-12-21T09:53:38.154Z,964.04
2016-12-21T09:54:38.136Z,964.1
2016-12-21T09:55:38.118Z,964.11
2016-12-21T09:56:38.100Z,964.13
2016-12-21T09:57:38.082Z,964.16
2016-12-21T09:58:38.064Z,964.2
2016-12-21T09:59:38.044Z,964.14
2016-12-21T10:00:38.027Z,964.16
2016-12-21T10:01:38.009Z,964.25
2016-12-21T10:02:37.992Z,964.26
2016-12-21T10:03:37.973Z,964.29
2016-12-21T10:04:37.954Z,964.31
2016-12-21T10:05:37.937Z,964.31
2016-12-21T10:06:37.919Z,964.31
2016-12-21T10:07:37.900Z,964.25
2016-12-21T10:08:37.882Z,964.26
2016-12-21T10:09:37.865Z,964.27
2016-12-21T10:10:37.846Z,964.32
2016-12-21T10:11:37.829Z,964.27
2016-12-21T10:12:37.811Z,964.33
2016-12-21T10:13:37.792Z,964.36
2016-12-21T10:14:37.775Z,964.32
2016-12-21T10:15:37.757Z,964.32
2016-12-21T10:16:37.739Z,964.34
2016-12-21T10:17:37.720Z,964.42
2016-12-21T10:18:37.702Z,964.42
2016-12-21T10:19:37.684Z,964.43
2016-12-21T10:20:37.666Z,964.38
2016-12-21T10:21:37.648Z,964.37
2016-12-21T10:22:37.631Z,964.35
2016-12-21T10:23:37.613Z,964.36
2016-12-21T10:24:37.595Z,964.4
2016-12-21T10:25:37.577Z,964.36
2016-12-21T10:26:37.559Z,964.4
2016-12-21T10:27:37.542Z,964.42
2016-12-21T10:28:37.524Z,964.38
2016-12-21T10:29:37.506Z,964.38
2016-12-21T10:30:37.489Z,964.33
2016-12-21T10:31:37.471Z,964.37
2016-12-21T10:32:37.452Z,964.37
2016-12-21T10:33:37.434Z,964.32
2016-12-21T10:34:37.420Z,964.33
2016-12-21T10:35:37.400Z,964.31
2016-12-21T10:36:37.382Z,964.28
2016-12-21T10:37:37.364Z,964.32
2016-12-21T10:38:37.347Z,964.35
2016-12-21T10:39:37.328Z,964.33
2016-12-21T10:40:37.311Z,964.4
2016-12-21T10:41:37.295Z,964.37
2016-12-21T10:42:37.276Z,964.38
2016-12-21T10:43:37.257Z,964.4
2016-12-21T10:44:37.242Z,964.4
2016-12-21T10:45:37.224Z,964.4
2016-12-21T10:46:37.205Z,964.42
2016-12-21T10:47:37.187Z,964.42
2016-12-21T10:48:37.170Z,964.38
2016-12-21T10:49:37.152Z,964.42
2016-12-21T10:50:37.134Z,964.4
2016-12-21T10:51:37.118Z,964.4
2016-12-21T10:52:37.099Z,964.37
2016-12-21T10:53:37.083Z,964.4
2016-12-21T10:54:37.063Z,964.4
2016-12-21T10:55:37.047Z,964.39
2016-12-21T10:56:37.028Z,964.43
2016-12-21T10:57:37.012Z,964.47
2016-12-21T10:58:36.993Z,964.41
2016-12-21T10:59:36.976Z,964.46
2016-12-21T11:00:36.958Z,964.45
2016-12-21T11:01:36.940Z,964.48
2016-12-21T11:02:36.922Z,964.46
2016-12-21T11:03:36.905Z,964.47
2016-12-21T11:04:36.888Z,964.45
2016-12-21T11:05:36.870Z,964.44
2016-12-21T11:06:36.853Z,964.44
2016-12-21T11:07:36.836Z,964.51
2016-12-21T11:08:36.817Z,964.52
2016-12-21T11:09:36.801Z,964.48
2016-12-21T11:10:36.783Z,964.54
2016-12-21T11:11:36.766Z,964.51
2016-12-21T11:12:36.748Z,964.5
2016-12-21T11:13:36.731Z,964.52
2016-12-21T11:14:36.714Z,964.53
2016-12-21T11:15:36.696Z,964.53
2016-12-21T11:16:36.678Z,964.52
2016-12-21T11:17:36.662Z,964.55
2016-12-21T11:18:36.643Z,964.58
2016-12-21T11:19:36.628Z,964.59
2016-12-21T11:20:36.610Z,964.62
2016-12-21T11:21:36.593Z,964.6
2016-12-21T11:22:36.575Z,964.57
2016-12-21T11:23:36.557Z,964.61
2016-12-21T11:24:36.541Z,964.52
2016-12-21T11:25:36.523Z,964.57
2016-12-21T11:26:36.506Z,964.61
2016-12-21T11:27:36.488Z,964.57
2016-12-21T11:28:36.475Z,964.57
2016-12-21T11:29:36.454Z,964.52
2016-12-21T11:30:36.438Z,964.54
2016-12-21T11:31:36.420Z,964.54
2016-12-21T11:32:36.404Z,964.52
2016-12-21T11:33:36.386Z,964.46
2016-12-21T11:34:36.368Z,964.49
2016-12-21T11:35:36.352Z,964.45
2016-12-21T11:36:36.335Z,964.45
2016-12-21T11:37:36.317Z,964.41
2016-12-21T11:38:36.299Z,964.41
2016-12-21T11:39:36.283Z,964.41
2016-12-21T11:40:36.266Z,964.42
2016-12-21T11:41:36.248Z,964.36
2016-12-21T11:42:36.232Z,964.35
2016-12-21T11:43:36.215Z,964.29
2016-12-21T11:44:36.198Z,964.29
2016-12-21T11:45:36.180Z,964.23
2016-12-21T11:46:36.164Z,964.25
2016-12-21T11:47:36.147Z,964.23
2016-12-21T11:48:36.129Z,964.15
2016-12-21T11:49:36.112Z,964.15
2016-12-21T11:50:36.094Z,964.16
2016-12-21T11:51:36.078Z,964.19
2016-12-21T11:52:36.062Z,964.15
2016-12-21T11:53:36.044Z,964.13
2016-12-21T11:54:36.026Z,964.14
2016-12-21T11:55:36.010Z,964.16
2016-12-21T11:56:35.992Z,964.18
2016-12-21T11:57:35.975Z,964.16
2016-12-21T11:58:35.959Z,964.11
2016-12-21T11:59:35.943Z,964.14
2016-12-21T12:00:35.925Z,964.16
2016-12-21T12:01:35.907Z,964.14
2016-12-21T12:02:35.889Z,964.15
2016-12-21T12:03:35.874Z,964.18
2016-12-21T12:04:35.856Z,964.13
2016-12-21T12:05:35.839Z,964.15
2016-12-21T12:06:35.822Z,964.17
2016-12-21T12:07:35.804Z,964.17
2016-12-21T12:08:35.786Z,964.16
2016-12-21T12:09:35.770Z,964.16
2016-12-21T12:10:35.753Z,964.12
2016-12-21T12:11:35.736Z,964.11
2016-12-21T12:12:35.717Z,964.11
2016-12-21T12:13:35.703Z,964.05
2016-12-21T12:14:35.686Z,964.11
2016-12-21T12:15:35.668Z,964.09
2016-12-21T12:16:35.652Z,964.09
2016-12-21T12:17:35.635Z,964.07
2016-12-21T12:18:35.618Z,964.04
2016-12-21T12:19:35.600Z,964.05
2016-12-21T12:20:35.584Z,964.04
2016-12-21T12:21:35.567Z,964.02
2016-12-21T12:22:35.549Z,964.06
2016-12-21T12:23:35.532Z,964.06
2016-12-21T12:24:35.516Z,963.99
2016-12-21T12:25:35.500Z,964
2016-12-21T12:26:35.479Z,964
2016-12-21T12:27:35.464Z,963.98
2016-12-21T12:28:35.447Z,963.95
2016-12-21T12:29:35.429Z,963.91
2016-12-21T12:30:35.413Z,963.92
2016-12-21T12:31:35.395Z,963.93